sensor_id;sensor_type;location;lat;lon;timestamp;temperature;humidity
3310;DHT22;1667;53.238;10.394;2022-07-29T00:03:25;18.00;69.20
3310;DHT22;1667;53.238;10.394;2022-07-29T00:08:24;18.00;69.00
3310;DHT22;1667;53.238;10.394;2022-07-29T00:13:22;18.00;69.20
3310;DHT22;1667;53.238;10.394;2022-07-29T00:18:30;18.00;69.60
3310;DHT22;1667;53.238;10.394;2022-07-29T00:23:28;18.00;69.60
3310;DHT22;1667;53.238;10.394;2022-07-29T00:28:32;18.00;69.30
3310;DHT22;1667;53.238;10.394;2022-07-29T00:33:32;18.00;69.80
3310;DHT22;1667;53.238;10.394;2022-07-29T00:38:30;18.00;69.20
3310;DHT22;1667;53.238;10.394;2022-07-29T00:43:28;17.90;69.50
3310;DHT22;1667;53.238;10.394;2022-07-29T00:48:26;17.80;69.80
3310;DHT22;1667;53.238;10.394;2022-07-29T00:53:27;17.80;70.20
3310;DHT22;1667;53.238;10.394;2022-07-29T00:58:26;17.80;70.10
3310;DHT22;1667;53.238;10.394;2022-07-29T01:03:25;17.70;69.90
3310;DHT22;1667;53.238;10.394;2022-07-29T01:08:23;17.70;70.30
3310;DHT22;1667;53.238;10.394;2022-07-29T01:13:23;17.60;70.60
3310;DHT22;1667;53.238;10.394;2022-07-29T01:18:30;17.60;70.40
3310;DHT22;1667;53.238;10.394;2022-07-29T01:23:46;17.60;70.30
3310;DHT22;1667;53.238;10.394;2022-07-29T01:28:56;17.50;70.70
3310;DHT22;1667;53.238;10.394;2022-07-29T01:34:06;17.50;71.00
3310;DHT22;1667;53.238;10.394;2022-07-29T01:39:10;17.40;70.80
3310;DHT22;1667;53.238;10.394;2022-07-29T01:44:14;17.40;71.30
3310;DHT22;1667;53.238;10.394;2022-07-29T01:49:17;17.30;71.50
3310;DHT22;1667;53.238;10.394;2022-07-29T01:54:20;17.30;72.00
3310;DHT22;1667;53.238;10.394;2022-07-29T01:59:23;17.30;72.30
3310;DHT22;1667;53.238;10.394;2022-07-29T02:04:23;17.20;72.20
3310;DHT22;1667;53.238;10.394;2022-07-29T02:09:26;17.10;72.60
3310;DHT22;1667;53.238;10.394;2022-07-29T02:14:27;17.10;73.00
3310;DHT22;1667;53.238;10.394;2022-07-29T02:19:27;17.20;73.00
3310;DHT22;1667;53.238;10.394;2022-07-29T02:24:28;17.20;72.90
3310;DHT22;1667;53.238;10.394;2022-07-29T02:29:30;17.20;73.20
3310;DHT22;1667;53.238;10.394;2022-07-29T02:34:29;17.20;73.20
3310;DHT22;1667;53.238;10.394;2022-07-29T02:39:28;17.20;73.10
3310;DHT22;1667;53.238;10.394;2022-07-29T02:44:28;17.20;73.40
3310;DHT22;1667;53.238;10.394;2022-07-29T02:49:35;17.20;73.30
3310;DHT22;1667;53.238;10.394;2022-07-29T02:54:38;17.10;73.50
3310;DHT22;1667;53.238;10.394;2022-07-29T02:59:41;17.10;74.20
3310;DHT22;1667;53.238;10.394;2022-07-29T03:04:42;17.10;74.40
3310;DHT22;1667;53.238;10.394;2022-07-29T03:09:41;17.10;74.40
3310;DHT22;1667;53.238;10.394;2022-07-29T03:14:42;17.10;74.60
3310;DHT22;1667;53.238;10.394;2022-07-29T03:19:42;17.10;74.80
3310;DHT22;1667;53.238;10.394;2022-07-29T03:24:40;17.20;75.20
3310;DHT22;1667;53.238;10.394;2022-07-29T03:29:38;17.20;75.10
3310;DHT22;1667;53.238;10.394;2022-07-29T03:34:46;17.20;74.70
3310;DHT22;1667;53.238;10.394;2022-07-29T03:39:46;17.20;74.70
3310;DHT22;1667;53.238;10.394;2022-07-29T03:44:47;17.20;74.80
3310;DHT22;1667;53.238;10.394;2022-07-29T03:49:49;17.30;75.00
3310;DHT22;1667;53.238;10.394;2022-07-29T03:54:48;17.20;75.20
3310;DHT22;1667;53.238;10.394;2022-07-29T03:59:47;17.20;75.30
3310;DHT22;1667;53.238;10.394;2022-07-29T04:04:45;17.10;75.50
3310;DHT22;1667;53.238;10.394;2022-07-29T04:09:45;17.20;75.40
3310;DHT22;1667;53.238;10.394;2022-07-29T04:14:43;17.10;75.90
3310;DHT22;1667;53.238;10.394;2022-07-29T04:19:41;17.00;76.60
3310;DHT22;1667;53.238;10.394;2022-07-29T04:24:40;17.00;76.40
3310;DHT22;1667;53.238;10.394;2022-07-29T04:29:41;17.00;76.60
3310;DHT22;1667;53.238;10.394;2022-07-29T04:34:53;17.00;76.70
3310;DHT22;1667;53.238;10.394;2022-07-29T04:39:51;17.10;76.90
3310;DHT22;1667;53.238;10.394;2022-07-29T04:44:51;17.20;77.30
3310;DHT22;1667;53.238;10.394;2022-07-29T04:49:49;17.20;76.30
3310;DHT22;1667;53.238;10.394;2022-07-29T04:54:48;17.30;76.30
3310;DHT22;1667;53.238;10.394;2022-07-29T04:59:46;17.30;76.60
3310;DHT22;1667;53.238;10.394;2022-07-29T05:04:46;17.30;77.10
3310;DHT22;1667;53.238;10.394;2022-07-29T05:09:44;17.30;77.10
3310;DHT22;1667;53.238;10.394;2022-07-29T05:14:42;17.30;77.50
3310;DHT22;1667;53.238;10.394;2022-07-29T05:19:40;17.40;77.50
3310;DHT22;1667;53.238;10.394;2022-07-29T05:24:40;17.40;77.70
3310;DHT22;1667;53.238;10.394;2022-07-29T05:29:38;17.50;77.80
3310;DHT22;1667;53.238;10.394;2022-07-29T05:34:41;17.50;78.20
3310;DHT22;1667;53.238;10.394;2022-07-29T05:39:49;17.50;78.20
3310;DHT22;1667;53.238;10.394;2022-07-29T05:44:53;17.70;78.00
3310;DHT22;1667;53.238;10.394;2022-07-29T05:49:51;17.80;77.90
3310;DHT22;1667;53.238;10.394;2022-07-29T05:54:51;17.80;77.70
3310;DHT22;1667;53.238;10.394;2022-07-29T05:59:50;17.90;78.20
3310;DHT22;1667;53.238;10.394;2022-07-29T06:04:48;17.90;78.40
3310;DHT22;1667;53.238;10.394;2022-07-29T06:09:47;18.00;78.10
3310;DHT22;1667;53.238;10.394;2022-07-29T06:14:46;18.10;79.20
3310;DHT22;1667;53.238;10.394;2022-07-29T06:19:50;18.20;79.00
3310;DHT22;1667;53.238;10.394;2022-07-29T06:24:48;18.30;78.20
3310;DHT22;1667;53.238;10.394;2022-07-29T06:29:48;18.40;78.60
3310;DHT22;1667;53.238;10.394;2022-07-29T06:34:46;18.50;78.20
3310;DHT22;1667;53.238;10.394;2022-07-29T06:39:45;18.60;79.20
3310;DHT22;1667;53.238;10.394;2022-07-29T06:44:43;18.70;78.80
3310;DHT22;1667;53.238;10.394;2022-07-29T06:49:42;18.90;80.10
3310;DHT22;1667;53.238;10.394;2022-07-29T06:54:41;19.00;80.70
3310;DHT22;1667;53.238;10.394;2022-07-29T06:59:44;19.10;79.20
3310;DHT22;1667;53.238;10.394;2022-07-29T07:04:44;19.30;80.10
3310;DHT22;1667;53.238;10.394;2022-07-29T07:09:45;19.50;80.10
3310;DHT22;1667;53.238;10.394;2022-07-29T07:14:43;19.50;78.70
3310;DHT22;1667;53.238;10.394;2022-07-29T07:19:41;19.60;79.80
3310;DHT22;1667;53.238;10.394;2022-07-29T07:24:41;19.80;80.20
3310;DHT22;1667;53.238;10.394;2022-07-29T07:29:39;20.00;79.40
3310;DHT22;1667;53.238;10.394;2022-07-29T07:34:40;20.00;79.00
3310;DHT22;1667;53.238;10.394;2022-07-29T07:39:38;20.20;79.90
3310;DHT22;1667;53.238;10.394;2022-07-29T07:44:38;20.40;80.10
3310;DHT22;1667;53.238;10.394;2022-07-29T07:49:56;20.60;80.30
3310;DHT22;1667;53.238;10.394;2022-07-29T07:54:54;20.80;79.10
3310;DHT22;1667;53.238;10.394;2022-07-29T07:59:54;21.10;78.40
3310;DHT22;1667;53.238;10.394;2022-07-29T08:04:53;21.40;77.90
3310;DHT22;1667;53.238;10.394;2022-07-29T08:09:51;21.60;78.40
3310;DHT22;1667;53.238;10.394;2022-07-29T08:14:50;21.90;79.20
3310;DHT22;1667;53.238;10.394;2022-07-29T08:19:49;22.10;79.30
3310;DHT22;1667;53.238;10.394;2022-07-29T08:24:47;22.40;77.80
3310;DHT22;1667;53.238;10.394;2022-07-29T08:29:51;22.60;76.50
3310;DHT22;1667;53.238;10.394;2022-07-29T08:34:51;22.70;74.70
3310;DHT22;1667;53.238;10.394;2022-07-29T08:39:49;23.00;74.50
3310;DHT22;1667;53.238;10.394;2022-07-29T08:44:48;23.30;76.30
3310;DHT22;1667;53.238;10.394;2022-07-29T08:49:47;23.60;75.10
3310;DHT22;1667;53.238;10.394;2022-07-29T08:54:47;23.90;74.60
3310;DHT22;1667;53.238;10.394;2022-07-29T08:59:46;24.30;74.50
3310;DHT22;1667;53.238;10.394;2022-07-29T09:04:49;24.70;74.50
3310;DHT22;1667;53.238;10.394;2022-07-29T09:09:49;25.20;71.90
3310;DHT22;1667;53.238;10.394;2022-07-29T09:14:47;25.30;72.30
3310;DHT22;1667;53.238;10.394;2022-07-29T09:19:45;25.60;68.70
3310;DHT22;1667;53.238;10.394;2022-07-29T09:24:45;26.10;68.60
3310;DHT22;1667;53.238;10.394;2022-07-29T09:29:45;26.40;68.70
3310;DHT22;1667;53.238;10.394;2022-07-29T09:34:43;26.60;67.40
3310;DHT22;1667;53.238;10.394;2022-07-29T09:39:42;26.90;64.80
3310;DHT22;1667;53.238;10.394;2022-07-29T09:44:46;27.20;64.20
3310;DHT22;1667;53.238;10.394;2022-07-29T09:49:53;27.40;64.70
3310;DHT22;1667;53.238;10.394;2022-07-29T09:54:52;27.60;63.60
3310;DHT22;1667;53.238;10.394;2022-07-29T09:59:58;27.90;61.90
3310;DHT22;1667;53.238;10.394;2022-07-29T10:04:56;27.90;63.60
3310;DHT22;1667;53.238;10.394;2022-07-29T10:09:57;28.20;60.20
3310;DHT22;1667;53.238;10.394;2022-07-29T10:14:56;28.30;60.10
3310;DHT22;1667;53.238;10.394;2022-07-29T10:19:55;28.60;58.10
3310;DHT22;1667;53.238;10.394;2022-07-29T10:24:54;28.90;58.70
3310;DHT22;1667;53.238;10.394;2022-07-29T10:29:53;28.90;57.50
3310;DHT22;1667;53.238;10.394;2022-07-29T10:35:21;29.00;57.20
3310;DHT22;1667;53.238;10.394;2022-07-29T10:40:31;29.20;56.80
3310;DHT22;1667;53.238;10.394;2022-07-29T10:45:56;29.20;56.90
3310;DHT22;1667;53.238;10.394;2022-07-29T10:50:58;29.30;56.80
3310;DHT22;1667;53.238;10.394;2022-07-29T10:55:57;29.40;55.60
3310;DHT22;1667;53.238;10.394;2022-07-29T11:00:55;29.50;55.50
3310;DHT22;1667;53.238;10.394;2022-07-29T11:05:56;29.60;54.00
3310;DHT22;1667;53.238;10.394;2022-07-29T11:17:04;29.70;54.20
3310;DHT22;1667;53.238;10.394;2022-07-29T11:22:08;29.60;53.60
3310;DHT22;1667;53.238;10.394;2022-07-29T11:27:11;29.60;54.00
3310;DHT22;1667;53.238;10.394;2022-07-29T11:32:14;29.60;53.10
3310;DHT22;1667;53.238;10.394;2022-07-29T11:37:22;29.70;53.30
3310;DHT22;1667;53.238;10.394;2022-07-29T11:42:44;29.70;52.90
3310;DHT22;1667;53.238;10.394;2022-07-29T11:47:51;29.70;53.00
3310;DHT22;1667;53.238;10.394;2022-07-29T11:52:52;29.70;52.30
3310;DHT22;1667;53.238;10.394;2022-07-29T11:57:53;29.70;52.50
3310;DHT22;1667;53.238;10.394;2022-07-29T12:03:01;29.70;52.60
3310;DHT22;1667;53.238;10.394;2022-07-29T12:08:10;29.80;52.40
3310;DHT22;1667;53.238;10.394;2022-07-29T12:13:11;29.90;53.10
3310;DHT22;1667;53.238;10.394;2022-07-29T12:18:17;29.80;52.80
3310;DHT22;1667;53.238;10.394;2022-07-29T12:23:21;29.80;53.50
3310;DHT22;1667;53.238;10.394;2022-07-29T12:28:25;30.00;52.60
3310;DHT22;1667;53.238;10.394;2022-07-29T12:33:26;30.10;52.60
3310;DHT22;1667;53.238;10.394;2022-07-29T12:38:26;30.30;52.20
3310;DHT22;1667;53.238;10.394;2022-07-29T12:43:25;30.30;52.90
3310;DHT22;1667;53.238;10.394;2022-07-29T12:48:33;30.50;53.20
3310;DHT22;1667;53.238;10.394;2022-07-29T12:53:33;30.80;51.20
3310;DHT22;1667;53.238;10.394;2022-07-29T12:58:34;31.00;50.70
3310;DHT22;1667;53.238;10.394;2022-07-29T13:03:51;31.40;51.00
3310;DHT22;1667;53.238;10.394;2022-07-29T13:09:01;31.70;50.60
3310;DHT22;1667;53.238;10.394;2022-07-29T13:13:59;31.90;49.60
3310;DHT22;1667;53.238;10.394;2022-07-29T13:19:07;32.10;48.20
3310;DHT22;1667;53.238;10.394;2022-07-29T13:24:08;32.30;47.90
3310;DHT22;1667;53.238;10.394;2022-07-29T13:29:07;32.40;48.40
3310;DHT22;1667;53.238;10.394;2022-07-29T13:34:05;32.50;49.20
3310;DHT22;1667;53.238;10.394;2022-07-29T13:39:03;32.50;48.10
3310;DHT22;1667;53.238;10.394;2022-07-29T13:44:03;32.50;47.90
3310;DHT22;1667;53.238;10.394;2022-07-29T13:49:01;32.50;47.40
3310;DHT22;1667;53.238;10.394;2022-07-29T13:53:59;32.60;46.90
3310;DHT22;1667;53.238;10.394;2022-07-29T13:58:58;32.50;48.10
3310;DHT22;1667;53.238;10.394;2022-07-29T14:03:58;32.60;48.40
3310;DHT22;1667;53.238;10.394;2022-07-29T14:08:56;32.50;47.20
3310;DHT22;1667;53.238;10.394;2022-07-29T14:13:54;32.60;45.90
3310;DHT22;1667;53.238;10.394;2022-07-29T14:18:52;32.60;46.80
3310;DHT22;1667;53.238;10.394;2022-07-29T14:23:52;32.60;47.70
3310;DHT22;1667;53.238;10.394;2022-07-29T14:28:52;32.50;46.20
3310;DHT22;1667;53.238;10.394;2022-07-29T14:33:50;32.50;46.50
3310;DHT22;1667;53.238;10.394;2022-07-29T14:38:48;32.50;46.10
3310;DHT22;1667;53.238;10.394;2022-07-29T14:43:48;32.40;46.50
3310;DHT22;1667;53.238;10.394;2022-07-29T14:48:46;32.00;46.20
3310;DHT22;1667;53.238;10.394;2022-07-29T14:53:44;32.00;48.10
3310;DHT22;1667;53.238;10.394;2022-07-29T14:58:42;31.90;47.50
3310;DHT22;1667;53.238;10.394;2022-07-29T15:03:49;31.90;49.00
3310;DHT22;1667;53.238;10.394;2022-07-29T15:08:47;31.80;47.00
3310;DHT22;1667;53.238;10.394;2022-07-29T15:13:45;31.60;45.60
3310;DHT22;1667;53.238;10.394;2022-07-29T15:18:43;31.70;46.80
3310;DHT22;1667;53.238;10.394;2022-07-29T15:23:43;31.60;46.90
3310;DHT22;1667;53.238;10.394;2022-07-29T15:28:41;31.40;46.60
3310;DHT22;1667;53.238;10.394;2022-07-29T15:33:39;31.30;45.70
3310;DHT22;1667;53.238;10.394;2022-07-29T15:38:38;31.30;46.10
3310;DHT22;1667;53.238;10.394;2022-07-29T15:43:42;31.20;46.50
3310;DHT22;1667;53.238;10.394;2022-07-29T15:48:41;31.00;46.20
3310;DHT22;1667;53.238;10.394;2022-07-29T15:53:39;30.80;46.50
3310;DHT22;1667;53.238;10.394;2022-07-29T15:58:39;30.80;47.00
3310;DHT22;1667;53.238;10.394;2022-07-29T16:03:37;30.80;46.20
3310;DHT22;1667;53.238;10.394;2022-07-29T16:08:42;30.70;46.60
3310;DHT22;1667;53.238;10.394;2022-07-29T16:13:41;30.60;45.50
3310;DHT22;1667;53.238;10.394;2022-07-29T16:18:39;30.30;47.90
3310;DHT22;1667;53.238;10.394;2022-07-29T16:23:38;30.20;53.00
3310;DHT22;1667;53.238;10.394;2022-07-29T16:28:36;30.00;53.80
3310;DHT22;1667;53.238;10.394;2022-07-29T16:33:36;29.70;54.20
3310;DHT22;1667;53.238;10.394;2022-07-29T16:38:51;29.50;54.90
3310;DHT22;1667;53.238;10.394;2022-07-29T16:43:49;29.40;56.20
3310;DHT22;1667;53.238;10.394;2022-07-29T16:48:49;29.20;57.30
3310;DHT22;1667;53.238;10.394;2022-07-29T16:53:47;29.00;57.80
3310;DHT22;1667;53.238;10.394;2022-07-29T16:58:46;28.90;58.00
3310;DHT22;1667;53.238;10.394;2022-07-29T17:03:44;28.70;58.20
3310;DHT22;1667;53.238;10.394;2022-07-29T17:09:02;28.70;57.70
3310;DHT22;1667;53.238;10.394;2022-07-29T17:14:00;28.50;58.20
3310;DHT22;1667;53.238;10.394;2022-07-29T17:19:04;28.30;58.60
3310;DHT22;1667;53.238;10.394;2022-07-29T17:24:05;28.00;59.40
3310;DHT22;1667;53.238;10.394;2022-07-29T17:29:03;27.90;60.50
3310;DHT22;1667;53.238;10.394;2022-07-29T17:34:02;27.80;61.00
3310;DHT22;1667;53.238;10.394;2022-07-29T17:39:05;27.70;61.20
3310;DHT22;1667;53.238;10.394;2022-07-29T17:44:03;27.60;61.40
3310;DHT22;1667;53.238;10.394;2022-07-29T17:49:02;27.60;61.80
3310;DHT22;1667;53.238;10.394;2022-07-29T17:54:00;27.50;62.10
3310;DHT22;1667;53.238;10.394;2022-07-29T17:59:00;27.40;63.00
3310;DHT22;1667;53.238;10.394;2022-07-29T18:04:02;27.20;63.90
3310;DHT22;1667;53.238;10.394;2022-07-29T18:09:00;27.10;64.40
3310;DHT22;1667;53.238;10.394;2022-07-29T18:14:00;26.80;65.20
3310;DHT22;1667;53.238;10.394;2022-07-29T18:18:58;26.80;65.10
3310;DHT22;1667;53.238;10.394;2022-07-29T18:23:58;26.60;66.10
3310;DHT22;1667;53.238;10.394;2022-07-29T18:28:56;26.50;66.40
3310;DHT22;1667;53.238;10.394;2022-07-29T18:33:56;26.40;67.50
3310;DHT22;1667;53.238;10.394;2022-07-29T18:38:56;26.30;67.30
3310;DHT22;1667;53.238;10.394;2022-07-29T18:43:54;26.20;67.60
3310;DHT22;1667;53.238;10.394;2022-07-29T18:48:52;26.10;68.50
3310;DHT22;1667;53.238;10.394;2022-07-29T18:53:54;26.00;68.80
3310;DHT22;1667;53.238;10.394;2022-07-29T18:58:52;25.90;69.20
3310;DHT22;1667;53.238;10.394;2022-07-29T19:03:50;25.80;69.40
3310;DHT22;1667;53.238;10.394;2022-07-29T19:08:49;25.60;69.90
3310;DHT22;1667;53.238;10.394;2022-07-29T19:13:49;25.60;69.80
3310;DHT22;1667;53.238;10.394;2022-07-29T19:18:47;25.50;70.20
3310;DHT22;1667;53.238;10.394;2022-07-29T19:23:46;25.50;70.30
3310;DHT22;1667;53.238;10.394;2022-07-29T19:29:03;25.40;71.00
3310;DHT22;1667;53.238;10.394;2022-07-29T19:34:02;25.20;72.10
3310;DHT22;1667;53.238;10.394;2022-07-29T19:39:00;25.00;72.20
3310;DHT22;1667;53.238;10.394;2022-07-29T19:43:59;24.80;72.80
3310;DHT22;1667;53.238;10.394;2022-07-29T19:48:58;24.80;72.80
3310;DHT22;1667;53.238;10.394;2022-07-29T19:53:57;24.80;72.70
3310;DHT22;1667;53.238;10.394;2022-07-29T19:58:56;24.70;72.80
3310;DHT22;1667;53.238;10.394;2022-07-29T20:03:54;24.70;73.30
3310;DHT22;1667;53.238;10.394;2022-07-29T20:08:54;24.60;73.60
3310;DHT22;1667;53.238;10.394;2022-07-29T20:13:54;24.50;73.60
3310;DHT22;1667;53.238;10.394;2022-07-29T20:18:53;24.40;73.60
3310;DHT22;1667;53.238;10.394;2022-07-29T20:23:51;24.40;73.80
3310;DHT22;1667;53.238;10.394;2022-07-29T20:28:50;24.30;74.30
3310;DHT22;1667;53.238;10.394;2022-07-29T20:33:49;24.30;74.50
3310;DHT22;1667;53.238;10.394;2022-07-29T20:38:47;24.20;74.10
3310;DHT22;1667;53.238;10.394;2022-07-29T20:43:45;24.10;74.00
3310;DHT22;1667;53.238;10.394;2022-07-29T20:48:46;24.10;74.60
3310;DHT22;1667;53.238;10.394;2022-07-29T20:53:45;24.00;74.60
3310;DHT22;1667;53.238;10.394;2022-07-29T20:58:43;23.90;74.70
3310;DHT22;1667;53.238;10.394;2022-07-29T21:03:42;23.90;74.50
3310;DHT22;1667;53.238;10.394;2022-07-29T21:08:41;23.80;74.90
3310;DHT22;1667;53.238;10.394;2022-07-29T21:13:41;23.70;75.20
3310;DHT22;1667;53.238;10.394;2022-07-29T21:18:41;23.60;75.60
3310;DHT22;1667;53.238;10.394;2022-07-29T21:23:43;23.40;76.00
3310;DHT22;1667;53.238;10.394;2022-07-29T21:28:43;23.20;76.70
3310;DHT22;1667;53.238;10.394;2022-07-29T21:33:46;23.10;79.00
3310;DHT22;1667;53.238;10.394;2022-07-29T21:38:45;22.90;78.60
3310;DHT22;1667;53.238;10.394;2022-07-29T21:43:43;22.90;78.90
3310;DHT22;1667;53.238;10.394;2022-07-29T21:48:42;22.90;78.30
3310;DHT22;1667;53.238;10.394;2022-07-29T21:53:40;22.90;78.20
3310;DHT22;1667;53.238;10.394;2022-07-29T21:58:41;22.80;78.10
3310;DHT22;1667;53.238;10.394;2022-07-29T22:03:39;22.80;77.70
3310;DHT22;1667;53.238;10.394;2022-07-29T22:08:37;22.70;78.10
3310;DHT22;1667;53.238;10.394;2022-07-29T22:13:37;22.60;78.50
3310;DHT22;1667;53.238;10.394;2022-07-29T22:18:37;22.50;78.90
3310;DHT22;1667;53.238;10.394;2022-07-29T22:23:35;22.60;78.80
3310;DHT22;1667;53.238;10.394;2022-07-29T22:28:33;22.60;79.60
3310;DHT22;1667;53.238;10.394;2022-07-29T22:33:31;22.60;78.60
3310;DHT22;1667;53.238;10.394;2022-07-29T22:38:31;22.50;78.80
3310;DHT22;1667;53.238;10.394;2022-07-29T22:43:29;22.40;78.80
3310;DHT22;1667;53.238;10.394;2022-07-29T22:48:28;22.40;78.80
3310;DHT22;1667;53.238;10.394;2022-07-29T22:53:26;22.30;79.10
3310;DHT22;1667;53.238;10.394;2022-07-29T22:58:26;22.20;79.00
3310;DHT22;1667;53.238;10.394;2022-07-29T23:03:24;22.20;78.90
3310;DHT22;1667;53.238;10.394;2022-07-29T23:08:22;22.20;78.50
3310;DHT22;1667;53.238;10.394;2022-07-29T23:13:21;22.20;78.20
3310;DHT22;1667;53.238;10.394;2022-07-29T23:18:20;22.20;78.20
3310;DHT22;1667;53.238;10.394;2022-07-29T23:23:18;22.10;78.20
3310;DHT22;1667;53.238;10.394;2022-07-29T23:28:17;22.00;78.70
3310;DHT22;1667;53.238;10.394;2022-07-29T23:33:15;22.00;78.00
3310;DHT22;1667;53.238;10.394;2022-07-29T23:38:14;22.00;78.00
3310;DHT22;1667;53.238;10.394;2022-07-29T23:43:13;22.00;77.70
3310;DHT22;1667;53.238;10.394;2022-07-29T23:48:11;22.10;77.60
3310;DHT22;1667;53.238;10.394;2022-07-29T23:53:10;22.00;77.00
3310;DHT22;1667;53.238;10.394;2022-07-29T23:58:10;22.00;77.60
